sensor_id;sensor_type;location;lat;lon;timestamp;pressure;altitude;pressure_sealevel;temperature;humidity
73842;BME280;62184;52.006;5.924;2023-11-19T00:00:54;100033.69;;;17.74;89.06
73842;BME280;62184;52.006;5.924;2023-11-19T00:03:21;100036.25;;;17.75;89.08
73842;BME280;62184;52.006;5.924;2023-11-19T00:05:47;100029.88;;;17.76;88.72
73842;BME280;62184;52.006;5.924;2023-11-19T00:08:14;100031.53;;;17.91;88.10
73842;BME280;62184;52.006;5.924;2023-11-19T00:10:40;100023.81;;;18.00;88.26
73842;BME280;62184;52.006;5.924;2023-11-19T00:13:06;100009.88;;;18.06;88.43
73842;BME280;62184;52.006;5.924;2023-11-19T00:15:33;100005.44;;;18.05;88.14
73842;BME280;62184;52.006;5.924;2023-11-19T00:18:02;100017.22;;;18.04;88.18
73842;BME280;62184;52.006;5.924;2023-11-19T00:20:28;100006.41;;;18.04;88.30
73842;BME280;62184;52.006;5.924;2023-11-19T00:22:55;100007.16;;;18.06;88.14
73842;BME280;62184;52.006;5.924;2023-11-19T00:25:21;100000.03;;;18.05;87.92
73842;BME280;62184;52.006;5.924;2023-11-19T00:27:47;99994.63;;;18.05;88.22
73842;BME280;62184;52.006;5.924;2023-11-19T00:30:14;99994.72;;;18.03;87.77
73842;BME280;62184;52.006;5.924;2023-11-19T00:32:41;100009.88;;;18.06;87.79
73842;BME280;62184;52.006;5.924;2023-11-19T00:35:11;100007.81;;;18.09;88.46
73842;BME280;62184;52.006;5.924;2023-11-19T00:37:37;99998.53;;;18.13;88.39
73842;BME280;62184;52.006;5.924;2023-11-19T00:40:05;99989.34;;;18.16;87.79
73842;BME280;62184;52.006;5.924;2023-11-19T00:42:32;99991.81;;;18.19;88.39
73842;BME280;62184;52.006;5.924;2023-11-19T00:44:59;99993.56;;;18.20;87.98
73842;BME280;62184;52.006;5.924;2023-11-19T00:47:25;100002.53;;;18.20;88.28
73842;BME280;62184;52.006;5.924;2023-11-19T00:49:51;99998.97;;;18.20;88.40
73842;BME280;62184;52.006;5.924;2023-11-19T00:52:20;100006.97;;;18.21;88.01
73842;BME280;62184;52.006;5.924;2023-11-19T00:54:47;99995.38;;;18.19;88.32
73842;BME280;62184;52.006;5.924;2023-11-19T00:57:13;99982.84;;;18.18;88.46
73842;BME280;62184;52.006;5.924;2023-11-19T00:59:41;99982.09;;;18.16;87.98
73842;BME280;62184;52.006;5.924;2023-11-19T01:02:07;99981.25;;;18.16;87.97
73842;BME280;62184;52.006;5.924;2023-11-19T01:04:34;99979.28;;;18.18;88.18
73842;BME280;62184;52.006;5.924;2023-11-19T01:07:01;99962.75;;;18.22;88.27
73842;BME280;62184;52.006;5.924;2023-11-19T01:09:31;99971.50;;;18.26;88.31
73842;BME280;62184;52.006;5.924;2023-11-19T01:11:58;99972.34;;;18.26;88.05
73842;BME280;62184;52.006;5.924;2023-11-19T01:14:24;99975.72;;;18.30;88.31
73842;BME280;62184;52.006;5.924;2023-11-19T01:16:51;99972.91;;;18.31;88.32
73842;BME280;62184;52.006;5.924;2023-11-19T01:19:17;99969.34;;;18.31;88.19
73842;BME280;62184;52.006;5.924;2023-11-19T01:21:43;99980.25;;;18.29;88.09
73842;BME280;62184;52.006;5.924;2023-11-19T01:24:10;99979.41;;;18.29;88.22
73842;BME280;62184;52.006;5.924;2023-11-19T01:26:39;99989.44;;;18.14;88.03
73842;BME280;62184;52.006;5.924;2023-11-19T01:29:05;99981.66;;;18.22;88.20
73842;BME280;62184;52.006;5.924;2023-11-19T01:31:31;99983.59;;;18.20;88.15
73842;BME280;62184;52.006;5.924;2023-11-19T01:33:58;99994.84;;;18.27;88.36
73842;BME280;62184;52.006;5.924;2023-11-19T01:36:24;99985.78;;;18.28;88.21
73842;BME280;62184;52.006;5.924;2023-11-19T01:38:51;99979.59;;;18.26;87.89
73842;BME280;62184;52.006;5.924;2023-11-19T01:41:17;99965.22;;;18.25;87.95
73842;BME280;62184;52.006;5.924;2023-11-19T01:43:46;99971.63;;;18.24;87.87
73842;BME280;62184;52.006;5.924;2023-11-19T01:46:12;99957.09;;;18.25;88.19
73842;BME280;62184;52.006;5.924;2023-11-19T01:48:40;99955.38;;;18.37;87.88
73842;BME280;62184;52.006;5.924;2023-11-19T01:51:11;99953.34;;;18.41;87.60
73842;BME280;62184;52.006;5.924;2023-11-19T01:53:39;99955.06;;;18.29;87.91
73842;BME280;62184;52.006;5.924;2023-11-19T01:56:08;99956.13;;;18.26;87.87
73842;BME280;62184;52.006;5.924;2023-11-19T01:58:36;99957.25;;;18.24;87.75
73842;BME280;62184;52.006;5.924;2023-11-19T02:01:06;99952.81;;;18.23;87.94
73842;BME280;62184;52.006;5.924;2023-11-19T02:03:32;99962.41;;;18.27;88.37
73842;BME280;62184;52.006;5.924;2023-11-19T02:06:00;99951.50;;;18.28;88.20
73842;BME280;62184;52.006;5.924;2023-11-19T02:08:27;99951.50;;;18.28;88.17
73842;BME280;62184;52.006;5.924;2023-11-19T02:10:53;99944.69;;;18.23;87.73
73842;BME280;62184;52.006;5.924;2023-11-19T02:13:19;99950.72;;;18.26;88.04
73842;BME280;62184;52.006;5.924;2023-11-19T02:15:46;99947.41;;;18.23;88.07
73842;BME280;62184;52.006;5.924;2023-11-19T02:18:22;99947.59;;;18.20;87.94
73842;BME280;62184;52.006;5.924;2023-11-19T02:20:49;99936.25;;;18.15;87.89
73842;BME280;62184;52.006;5.924;2023-11-19T02:23:17;99939.16;;;18.12;87.90
73842;BME280;62184;52.006;5.924;2023-11-19T02:25:54;99939.16;;;18.12;88.01
73842;BME280;62184;52.006;5.924;2023-11-19T02:28:31;99941.66;;;18.15;88.38
73842;BME280;62184;52.006;5.924;2023-11-19T02:30:58;99942.41;;;18.17;88.22
73842;BME280;62184;52.006;5.924;2023-11-19T02:33:25;99944.56;;;18.12;87.74
73842;BME280;62184;52.006;5.924;2023-11-19T02:35:51;99954.00;;;18.06;87.91
73842;BME280;62184;52.006;5.924;2023-11-19T02:38:18;99955.91;;;18.04;87.75
73842;BME280;62184;52.006;5.924;2023-11-19T02:40:44;99948.59;;;18.06;87.94
73842;BME280;62184;52.006;5.924;2023-11-19T02:43:10;99941.53;;;18.04;87.79
73842;BME280;62184;52.006;5.924;2023-11-19T02:45:39;99957.75;;;18.04;88.11
73842;BME280;62184;52.006;5.924;2023-11-19T02:48:06;99954.53;;;17.99;87.78
73842;BME280;62184;52.006;5.924;2023-11-19T02:50:32;99943.25;;;17.92;86.44
73842;BME280;62184;52.006;5.924;2023-11-19T02:52:59;99955.16;;;17.89;87.51
73842;BME280;62184;52.006;5.924;2023-11-19T02:55:25;99952.56;;;17.88;87.39
73842;BME280;62184;52.006;5.924;2023-11-19T02:57:51;99948.88;;;17.89;87.69
73842;BME280;62184;52.006;5.924;2023-11-19T03:00:19;99957.97;;;17.88;87.28
73842;BME280;62184;52.006;5.924;2023-11-19T03:02:49;99950.28;;;17.82;87.16
73842;BME280;62184;52.006;5.924;2023-11-19T03:05:16;99949.94;;;17.74;87.01
73842;BME280;62184;52.006;5.924;2023-11-19T03:07:43;99951.00;;;17.71;87.02
73842;BME280;62184;52.006;5.924;2023-11-19T03:10:10;99940.22;;;17.71;87.02
73842;BME280;62184;52.006;5.924;2023-11-19T03:12:37;99960.09;;;17.70;87.54
73842;BME280;62184;52.006;5.924;2023-11-19T03:15:05;99944.06;;;17.67;87.30
73842;BME280;62184;52.006;5.924;2023-11-19T03:17:32;99951.97;;;17.70;87.22
73842;BME280;62184;52.006;5.924;2023-11-19T03:20:01;99953.53;;;17.74;87.64
73842;BME280;62184;52.006;5.924;2023-11-19T03:22:27;99954.47;;;17.73;87.33
73842;BME280;62184;52.006;5.924;2023-11-19T03:24:54;99939.25;;;17.72;87.62
73842;BME280;62184;52.006;5.924;2023-11-19T03:27:20;99944.75;;;17.71;87.59
73842;BME280;62184;52.006;5.924;2023-11-19T03:29:47;99955.66;;;17.69;88.12
73842;BME280;62184;52.006;5.924;2023-11-19T03:32:13;99962.25;;;17.65;87.67
73842;BME280;62184;52.006;5.924;2023-11-19T03:34:40;99961.38;;;17.65;87.35
73842;BME280;62184;52.006;5.924;2023-11-19T03:37:09;99955.88;;;17.66;87.66
73842;BME280;62184;52.006;5.924;2023-11-19T03:39:35;99953.19;;;17.66;88.06
73842;BME280;62184;52.006;5.924;2023-11-19T03:42:01;99942.88;;;17.58;87.74
73842;BME280;62184;52.006;5.924;2023-11-19T03:44:28;99953.19;;;17.52;87.01
73842;BME280;62184;52.006;5.924;2023-11-19T03:46:54;99950.72;;;17.49;87.48
73842;BME280;62184;52.006;5.924;2023-11-19T03:49:21;99939.44;;;17.42;87.66
73842;BME280;62184;52.006;5.924;2023-11-19T03:51:47;99940.06;;;17.33;87.61
73842;BME280;62184;52.006;5.924;2023-11-19T03:54:16;99930.47;;;17.29;87.74
73842;BME280;62184;52.006;5.924;2023-11-19T03:56:42;99938.72;;;17.13;87.50
73842;BME280;62184;52.006;5.924;2023-11-19T03:59:09;99938.53;;;17.02;87.41
73842;BME280;62184;52.006;5.924;2023-11-19T04:01:35;99934.88;;;17.03;87.21
73842;BME280;62184;52.006;5.924;2023-11-19T04:04:02;99941.56;;;16.98;87.12
73842;BME280;62184;52.006;5.924;2023-11-19T04:06:28;99944.44;;;16.95;87.18
73842;BME280;62184;52.006;5.924;2023-11-19T04:08:55;99947.22;;;16.93;87.62
73842;BME280;62184;52.006;5.924;2023-11-19T04:11:24;99943.75;;;16.91;87.50
73842;BME280;62184;52.006;5.924;2023-11-19T04:13:50;99947.75;;;16.86;87.26
73842;BME280;62184;52.006;5.924;2023-11-19T04:16:16;99942.66;;;16.81;87.89
73842;BME280;62184;52.006;5.924;2023-11-19T04:18:43;99955.00;;;16.71;87.20
73842;BME280;62184;52.006;5.924;2023-11-19T04:21:09;99946.31;;;16.66;87.50
73842;BME280;62184;52.006;5.924;2023-11-19T04:23:36;99942.66;;;16.67;87.63
73842;BME280;62184;52.006;5.924;2023-11-19T04:26:02;99961.84;;;16.62;87.63
73842;BME280;62184;52.006;5.924;2023-11-19T04:28:32;99961.34;;;16.56;87.47
73842;BME280;62184;52.006;5.924;2023-11-19T04:30:58;99968.84;;;16.51;87.68
73842;BME280;62184;52.006;5.924;2023-11-19T04:33:24;99965.28;;;16.50;87.60
73842;BME280;62184;52.006;5.924;2023-11-19T04:35:51;99977.00;;;16.49;87.60
73842;BME280;62184;52.006;5.924;2023-11-19T04:38:17;99970.19;;;16.43;87.07
73842;BME280;62184;52.006;5.924;2023-11-19T04:40:44;99979.31;;;16.41;87.53
73842;BME280;62184;52.006;5.924;2023-11-19T04:43:10;99977.63;;;16.40;87.21
73842;BME280;62184;52.006;5.924;2023-11-19T04:45:39;99973.09;;;16.40;87.29
73842;BME280;62184;52.006;5.924;2023-11-19T04:48:05;99983.88;;;16.40;87.31
73842;BME280;62184;52.006;5.924;2023-11-19T04:50:32;99966.84;;;16.40;87.25
73842;BME280;62184;52.006;5.924;2023-11-19T04:52:58;99973.09;;;16.40;87.26
73842;BME280;62184;52.006;5.924;2023-11-19T04:55:24;99968.84;;;16.36;87.47
73842;BME280;62184;52.006;5.924;2023-11-19T04:57:53;99966.31;;;16.33;86.73
73842;BME280;62184;52.006;5.924;2023-11-19T05:00:20;99970.41;;;16.40;87.12
73842;BME280;62184;52.006;5.924;2023-11-19T05:02:49;99958.63;;;16.41;87.07
73842;BME280;62184;52.006;5.924;2023-11-19T05:05:16;99961.91;;;16.32;87.51
73842;BME280;62184;52.006;5.924;2023-11-19T05:07:43;99966.91;;;16.24;87.38
73842;BME280;62184;52.006;5.924;2023-11-19T05:10:09;99960.84;;;16.21;87.35
73842;BME280;62184;52.006;5.924;2023-11-19T05:12:36;99961.91;;;16.18;87.12
73842;BME280;62184;52.006;5.924;2023-11-19T05:15:03;99963.72;;;16.18;87.29
73842;BME280;62184;52.006;5.924;2023-11-19T05:17:30;99969.31;;;16.15;87.33
73842;BME280;62184;52.006;5.924;2023-11-19T05:19:59;99979.22;;;16.14;87.37
73842;BME280;62184;52.006;5.924;2023-11-19T05:22:26;99966.72;;;16.13;87.27
73842;BME280;62184;52.006;5.924;2023-11-19T05:24:52;99978.16;;;16.17;87.38
73842;BME280;62184;52.006;5.924;2023-11-19T05:27:18;99981.44;;;16.22;87.48
73842;BME280;62184;52.006;5.924;2023-11-19T05:29:45;99982.03;;;16.27;87.69
73842;BME280;62184;52.006;5.924;2023-11-19T05:32:11;99983.28;;;16.35;87.74
73842;BME280;62184;52.006;5.924;2023-11-19T05:34:38;99980.88;;;16.31;88.02
73842;BME280;62184;52.006;5.924;2023-11-19T05:37:07;99977.69;;;16.24;88.50
73842;BME280;62184;52.006;5.924;2023-11-19T05:39:33;99983.06;;;16.24;88.55
73842;BME280;62184;52.006;5.924;2023-11-19T05:41:59;99972.28;;;16.24;88.53
73842;BME280;62184;52.006;5.924;2023-11-19T05:44:26;99972.41;;;16.23;88.17
73842;BME280;62184;52.006;5.924;2023-11-19T05:46:53;99986.06;;;16.20;87.77
73842;BME280;62184;52.006;5.924;2023-11-19T05:49:19;99974.25;;;16.22;88.34
73842;BME280;62184;52.006;5.924;2023-11-19T05:51:46;99970.59;;;16.23;88.51
73842;BME280;62184;52.006;5.924;2023-11-19T05:54:14;99985.38;;;16.16;87.74
73842;BME280;62184;52.006;5.924;2023-11-19T05:56:41;99979.06;;;16.31;87.56
73842;BME280;62184;52.006;5.924;2023-11-19T05:59:07;99980.59;;;16.35;87.60
73842;BME280;62184;52.006;5.924;2023-11-19T06:01:34;99985.69;;;16.40;87.67
73842;BME280;62184;52.006;5.924;2023-11-19T06:04:00;99988.41;;;16.40;87.63
73842;BME280;62184;52.006;5.924;2023-11-19T06:06:28;99978.28;;;16.43;87.95
73842;BME280;62184;52.006;5.924;2023-11-19T06:08:55;99974.81;;;16.41;87.57
73842;BME280;62184;52.006;5.924;2023-11-19T06:11:24;99994.44;;;16.43;87.75
73842;BME280;62184;52.006;5.924;2023-11-19T06:13:50;99982.72;;;16.44;88.25
73842;BME280;62184;52.006;5.924;2023-11-19T06:16:16;99989.75;;;16.47;87.77
73842;BME280;62184;52.006;5.924;2023-11-19T06:18:43;99984.25;;;16.49;87.66
73842;BME280;62184;52.006;5.924;2023-11-19T06:21:09;99989.66;;;16.49;87.49
73842;BME280;62184;52.006;5.924;2023-11-19T06:23:36;99995.31;;;16.44;87.87
73842;BME280;62184;52.006;5.924;2023-11-19T06:26:03;99988.66;;;16.50;87.25
73842;BME280;62184;52.006;5.924;2023-11-19T06:28:32;99994.19;;;16.48;87.01
73842;BME280;62184;52.006;5.924;2023-11-19T06:30:58;99992.72;;;16.28;87.75
73842;BME280;62184;52.006;5.924;2023-11-19T06:33:25;99989.72;;;16.19;87.58
73842;BME280;62184;52.006;5.924;2023-11-19T06:35:52;99988.06;;;16.16;87.55
73842;BME280;62184;52.006;5.924;2023-11-19T06:38:18;99992.00;;;16.11;87.42
73842;BME280;62184;52.006;5.924;2023-11-19T06:40:45;99991.22;;;16.08;87.30
73842;BME280;62184;52.006;5.924;2023-11-19T06:43:11;99990.66;;;16.03;87.04
73842;BME280;62184;52.006;5.924;2023-11-19T06:45:40;99989.22;;;15.98;86.78
73842;BME280;62184;52.006;5.924;2023-11-19T06:48:07;99999.59;;;16.04;86.75
73842;BME280;62184;52.006;5.924;2023-11-19T06:50:33;100002.31;;;16.04;87.32
73842;BME280;62184;52.006;5.924;2023-11-19T06:52:59;100013.66;;;16.09;87.39
73842;BME280;62184;52.006;5.924;2023-11-19T06:55:26;100002.97;;;16.07;87.61
73842;BME280;62184;52.006;5.924;2023-11-19T06:57:52;100009.03;;;16.11;87.38
73842;BME280;62184;52.006;5.924;2023-11-19T07:00:19;100012.53;;;16.13;87.72
73842;BME280;62184;52.006;5.924;2023-11-19T07:02:48;100008.88;;;16.14;87.22
73842;BME280;62184;52.006;5.924;2023-11-19T07:05:14;100009.63;;;16.16;87.54
73842;BME280;62184;52.006;5.924;2023-11-19T07:07:41;100014.91;;;16.18;87.28
73842;BME280;62184;52.006;5.924;2023-11-19T07:10:07;100018.56;;;16.17;87.28
73842;BME280;62184;52.006;5.924;2023-11-19T07:12:34;100025.22;;;16.11;87.07
73842;BME280;62184;52.006;5.924;2023-11-19T07:15:00;100026.16;;;16.10;87.55
73842;BME280;62184;52.006;5.924;2023-11-19T07:17:27;100020.97;;;16.07;86.90
73842;BME280;62184;52.006;5.924;2023-11-19T07:19:56;100026.06;;;16.12;87.32
73842;BME280;62184;52.006;5.924;2023-11-19T07:22:22;100041.22;;;16.28;86.94
73842;BME280;62184;52.006;5.924;2023-11-19T07:24:48;100043.25;;;16.39;87.20
73842;BME280;62184;52.006;5.924;2023-11-19T07:27:15;100031.69;;;16.51;86.88
73842;BME280;62184;52.006;5.924;2023-11-19T07:29:43;100035.00;;;16.56;86.94
73842;BME280;62184;52.006;5.924;2023-11-19T07:32:09;100032.00;;;16.61;87.00
73842;BME280;62184;52.006;5.924;2023-11-19T07:34:36;100040.69;;;16.66;86.56
73842;BME280;62184;52.006;5.924;2023-11-19T07:37:05;100048.91;;;16.64;86.53
73842;BME280;62184;52.006;5.924;2023-11-19T07:39:32;100055.97;;;16.51;86.99
73842;BME280;62184;52.006;5.924;2023-11-19T07:41:58;100058.19;;;16.44;86.61
73842;BME280;62184;52.006;5.924;2023-11-19T07:44:24;100049.63;;;16.38;86.38
73842;BME280;62184;52.006;5.924;2023-11-19T07:46:51;100060.00;;;16.44;86.40
73842;BME280;62184;52.006;5.924;2023-11-19T07:49:17;100055.31;;;16.48;86.50
73842;BME280;62184;52.006;5.924;2023-11-19T07:51:44;100058.41;;;16.56;86.77
73842;BME280;62184;52.006;5.924;2023-11-19T07:54:13;100056.44;;;16.58;86.44
73842;BME280;62184;52.006;5.924;2023-11-19T07:56:39;100051.75;;;16.61;86.97
73842;BME280;62184;52.006;5.924;2023-11-19T07:59:06;100053.56;;;16.61;86.75
73842;BME280;62184;52.006;5.924;2023-11-19T08:01:32;100054.09;;;16.67;86.76
73842;BME280;62184;52.006;5.924;2023-11-19T08:03:59;100054.97;;;16.82;86.69
73842;BME280;62184;52.006;5.924;2023-11-19T08:06:25;100062.84;;;16.85;86.66
73842;BME280;62184;52.006;5.924;2023-11-19T08:08:52;100063.53;;;16.89;86.39
73842;BME280;62184;52.006;5.924;2023-11-19T08:11:21;100059.88;;;16.90;86.28
73842;BME280;62184;52.006;5.924;2023-11-19T08:13:47;100052.03;;;16.99;86.57
73842;BME280;62184;52.006;5.924;2023-11-19T08:16:14;100053.78;;;17.14;86.77
73842;BME280;62184;52.006;5.924;2023-11-19T08:18:41;100054.34;;;17.19;86.02
73842;BME280;62184;52.006;5.924;2023-11-19T08:21:08;100043.09;;;17.13;85.91
73842;BME280;62184;52.006;5.924;2023-11-19T08:23:35;100064.75;;;17.11;86.65
73842;BME280;62184;52.006;5.924;2023-11-19T08:26:03;100072.84;;;17.11;86.23
73842;BME280;62184;52.006;5.924;2023-11-19T08:28:33;100065.31;;;17.16;86.93
73842;BME280;62184;52.006;5.924;2023-11-19T08:31:00;100059.75;;;17.19;86.38
73842;BME280;62184;52.006;5.924;2023-11-19T08:33:26;100060.59;;;17.20;86.54
73842;BME280;62184;52.006;5.924;2023-11-19T08:35:53;100056.09;;;17.06;87.14
73842;BME280;62184;52.006;5.924;2023-11-19T08:38:19;100061.88;;;17.00;86.94
73842;BME280;62184;52.006;5.924;2023-11-19T08:40:45;100061.41;;;16.94;86.59
73842;BME280;62184;52.006;5.924;2023-11-19T08:43:12;100042.91;;;16.88;86.58
73842;BME280;62184;52.006;5.924;2023-11-19T08:45:41;100044.19;;;16.82;86.16
73842;BME280;62184;52.006;5.924;2023-11-19T08:48:07;100045.88;;;16.83;86.34
73842;BME280;62184;52.006;5.924;2023-11-19T08:50:34;100053.03;;;16.84;87.01
73842;BME280;62184;52.006;5.924;2023-11-19T08:53:00;100063.81;;;16.84;86.37
73842;BME280;62184;52.006;5.924;2023-11-19T08:55:26;100066.59;;;16.82;86.77
73842;BME280;62184;52.006;5.924;2023-11-19T08:57:53;100068.56;;;16.80;87.08
73842;BME280;62184;52.006;5.924;2023-11-19T09:00:19;100074.03;;;16.79;86.37
73842;BME280;62184;52.006;5.924;2023-11-19T09:02:48;100067.78;;;16.78;87.33
73842;BME280;62184;52.006;5.924;2023-11-19T09:05:15;100063.81;;;16.84;87.17
73842;BME280;62184;52.006;5.924;2023-11-19T09:07:41;100071.91;;;16.84;87.52
73842;BME280;62184;52.006;5.924;2023-11-19T09:10:08;100058.22;;;16.87;87.57
73842;BME280;62184;52.006;5.924;2023-11-19T09:12:35;100050.81;;;16.91;87.86
73842;BME280;62184;52.006;5.924;2023-11-19T09:15:02;100048.50;;;16.85;87.57
73842;BME280;62184;52.006;5.924;2023-11-19T09:17:29;100064.03;;;16.81;87.05
73842;BME280;62184;52.006;5.924;2023-11-19T09:19:58;100074.81;;;16.81;87.33
73842;BME280;62184;52.006;5.924;2023-11-19T09:22:24;100066.16;;;16.90;88.02
73842;BME280;62184;52.006;5.924;2023-11-19T09:24:50;100064.78;;;16.97;87.64
73842;BME280;62184;52.006;5.924;2023-11-19T09:27:17;100069.00;;;17.01;87.69
73842;BME280;62184;52.006;5.924;2023-11-19T09:29:43;100064.69;;;16.99;87.83
73842;BME280;62184;52.006;5.924;2023-11-19T09:32:09;100067.00;;;17.05;87.78
73842;BME280;62184;52.006;5.924;2023-11-19T09:34:36;100067.66;;;17.08;87.91
73842;BME280;62184;52.006;5.924;2023-11-19T09:37:05;100080.09;;;16.97;86.25
73842;BME280;62184;52.006;5.924;2023-11-19T09:39:31;100061.88;;;16.86;86.01
73842;BME280;62184;52.006;5.924;2023-11-19T09:41:58;100075.19;;;17.03;86.96
73842;BME280;62184;52.006;5.924;2023-11-19T09:44:25;100060.31;;;17.10;87.62
73842;BME280;62184;52.006;5.924;2023-11-19T09:46:53;100065.72;;;17.10;87.44
73842;BME280;62184;52.006;5.924;2023-11-19T09:49:21;100066.31;;;17.15;87.98
73842;BME280;62184;52.006;5.924;2023-11-19T09:51:52;100060.91;;;17.15;87.69
73842;BME280;62184;52.006;5.924;2023-11-19T09:54:21;100066.19;;;17.17;87.78
73842;BME280;62184;52.006;5.924;2023-11-19T09:56:48;100061.47;;;17.20;88.07
73842;BME280;62184;52.006;5.924;2023-11-19T09:59:15;100070.81;;;17.29;87.96
73842;BME280;62184;52.006;5.924;2023-11-19T10:01:43;100058.56;;;17.38;88.33
73842;BME280;62184;52.006;5.924;2023-11-19T10:04:11;100068.06;;;17.43;88.36
73842;BME280;62184;52.006;5.924;2023-11-19T10:06:42;100070.69;;;17.45;88.05
73842;BME280;62184;52.006;5.924;2023-11-19T10:09:08;100061.09;;;17.53;88.25
73842;BME280;62184;52.006;5.924;2023-11-19T10:11:38;100060.72;;;17.60;88.09
73842;BME280;62184;52.006;5.924;2023-11-19T10:14:04;100057.94;;;17.61;88.48
73842;BME280;62184;52.006;5.924;2023-11-19T10:16:31;100056.97;;;17.62;87.98
73842;BME280;62184;52.006;5.924;2023-11-19T10:19:00;100054.16;;;17.64;87.93
73842;BME280;62184;52.006;5.924;2023-11-19T10:21:27;100050.69;;;17.62;87.75
73842;BME280;62184;52.006;5.924;2023-11-19T10:23:56;100056.00;;;17.63;88.19
73842;BME280;62184;52.006;5.924;2023-11-19T10:26:23;100048.66;;;17.65;88.58
73842;BME280;62184;52.006;5.924;2023-11-19T10:28:52;100043.38;;;17.64;88.12
73842;BME280;62184;52.006;5.924;2023-11-19T10:31:20;100040.34;;;17.68;88.38
73842;BME280;62184;52.006;5.924;2023-11-19T10:33:46;100045.97;;;17.65;87.79
73842;BME280;62184;52.006;5.924;2023-11-19T10:36:13;100038.06;;;17.62;87.47
73842;BME280;62184;52.006;5.924;2023-11-19T10:38:40;100041.34;;;17.53;87.57
73842;BME280;62184;52.006;5.924;2023-11-19T10:41:26;100044.13;;;17.51;87.35
73842;BME280;62184;52.006;5.924;2023-11-19T10:43:56;100038.28;;;17.45;87.11
73842;BME280;62184;52.006;5.924;2023-11-19T10:46:22;100038.72;;;17.51;87.28
73842;BME280;62184;52.006;5.924;2023-11-19T10:49:01;100028.91;;;17.50;87.31
73842;BME280;62184;52.006;5.924;2023-11-19T10:51:29;100037.66;;;17.54;87.50
73842;BME280;62184;52.006;5.924;2023-11-19T10:54:02;100034.50;;;17.62;87.64
73842;BME280;62184;52.006;5.924;2023-11-19T10:56:31;100030.41;;;17.69;87.89
73842;BME280;62184;52.006;5.924;2023-11-19T10:59:02;100019.41;;;17.72;87.51
73842;BME280;62184;52.006;5.924;2023-11-19T11:01:37;100028.28;;;17.74;87.40
73842;BME280;62184;52.006;5.924;2023-11-19T11:04:13;100022.25;;;17.83;87.81
73842;BME280;62184;52.006;5.924;2023-11-19T11:06:40;100021.16;;;17.85;87.94
73842;BME280;62184;52.006;5.924;2023-11-19T11:09:08;100020.91;;;17.76;86.49
73842;BME280;62184;52.006;5.924;2023-11-19T11:11:37;100026.91;;;17.81;86.89
73842;BME280;62184;52.006;5.924;2023-11-19T11:14:07;100024.09;;;17.95;87.30
73842;BME280;62184;52.006;5.924;2023-11-19T11:16:42;100029.22;;;18.00;86.59
73842;BME280;62184;52.006;5.924;2023-11-19T11:19:09;100024.16;;;18.08;88.15
73842;BME280;62184;52.006;5.924;2023-11-19T11:21:37;100026.41;;;18.26;88.73
73842;BME280;62184;52.006;5.924;2023-11-19T11:24:28;100028.81;;;18.31;88.28
73842;BME280;62184;52.006;5.924;2023-11-19T11:27:43;100020.47;;;18.21;86.44
73842;BME280;62184;52.006;5.924;2023-11-19T11:30:46;100015.59;;;18.14;86.43
73842;BME280;62184;52.006;5.924;2023-11-19T11:33:36;100021.34;;;18.22;87.71
73842;BME280;62184;52.006;5.924;2023-11-19T11:36:21;100023.19;;;18.21;87.00
73842;BME280;62184;52.006;5.924;2023-11-19T11:38:49;100014.63;;;18.15;86.78
73842;BME280;62184;52.006;5.924;2023-11-19T11:41:17;100001.31;;;18.12;87.32
73842;BME280;62184;52.006;5.924;2023-11-19T11:43:45;100017.97;;;18.06;86.77
73842;BME280;62184;52.006;5.924;2023-11-19T11:49:27;100008.22;;;17.90;86.56
73842;BME280;62184;52.006;5.924;2023-11-19T11:51:58;100016.09;;;17.81;84.65
73842;BME280;62184;52.006;5.924;2023-11-19T11:54:29;99993.94;;;17.88;86.55
73842;BME280;62184;52.006;5.924;2023-11-19T11:57:16;99986.38;;;17.93;87.21
73842;BME280;62184;52.006;5.924;2023-11-19T11:59:46;99995.91;;;18.12;87.80
73842;BME280;62184;52.006;5.924;2023-11-19T12:02:17;99993.75;;;18.17;86.51
73842;BME280;62184;52.006;5.924;2023-11-19T12:04:49;99995.63;;;18.16;85.92
73842;BME280;62184;52.006;5.924;2023-11-19T12:07:18;99995.72;;;18.27;87.07
73842;BME280;62184;52.006;5.924;2023-11-19T12:09:51;99991.28;;;18.39;87.16
73842;BME280;62184;52.006;5.924;2023-11-19T12:12:19;99981.34;;;18.52;87.56
73842;BME280;62184;52.006;5.924;2023-11-19T12:15:01;99987.09;;;18.60;87.03
73842;BME280;62184;52.006;5.924;2023-11-19T12:17:59;99981.47;;;18.63;86.20
73842;BME280;62184;52.006;5.924;2023-11-19T12:20:26;99995.84;;;18.64;86.95
73842;BME280;62184;52.006;5.924;2023-11-19T12:22:53;99986.53;;;18.68;86.97
73842;BME280;62184;52.006;5.924;2023-11-19T12:25:20;99978.91;;;18.49;83.89
73842;BME280;62184;52.006;5.924;2023-11-19T12:27:47;99990.09;;;18.30;83.06
73842;BME280;62184;52.006;5.924;2023-11-19T12:30:17;99988.59;;;18.14;83.58
73842;BME280;62184;52.006;5.924;2023-11-19T12:32:45;99984.38;;;18.22;85.54
73842;BME280;62184;52.006;5.924;2023-11-19T12:35:14;99993.69;;;18.31;86.69
73842;BME280;62184;52.006;5.924;2023-11-19T12:37:41;99992.91;;;18.42;85.91
73842;BME280;62184;52.006;5.924;2023-11-19T12:40:15;99971.81;;;18.59;87.29
73842;BME280;62184;52.006;5.924;2023-11-19T12:42:44;99991.00;;;18.56;85.97
73842;BME280;62184;52.006;5.924;2023-11-19T12:45:10;100001.78;;;18.69;87.06
73842;BME280;62184;52.006;5.924;2023-11-19T12:47:37;99989.22;;;18.81;87.48
73842;BME280;62184;52.006;5.924;2023-11-19T12:50:06;99995.09;;;18.62;84.45
73842;BME280;62184;52.006;5.924;2023-11-19T12:52:36;99990.03;;;18.57;85.70
73842;BME280;62184;52.006;5.924;2023-11-19T12:55:03;99986.13;;;18.49;86.07
73842;BME280;62184;52.006;5.924;2023-11-19T12:57:38;99996.81;;;18.50;86.24
73842;BME280;62184;52.006;5.924;2023-11-19T13:00:07;99996.47;;;18.42;86.13
73842;BME280;62184;52.006;5.924;2023-11-19T13:02:47;99997.06;;;18.47;87.10